sensor_id;sensor_type;location;lat;lon;timestamp;temperature;humidity
65291;SHT30;51893;59.754;10.110;2022-09-03T00:00:32;15.13;79.43
65291;SHT30;51893;59.754;10.110;2022-09-03T00:03:12;15.15;79.47
65291;SHT30;51893;59.754;10.110;2022-09-03T00:14:37;15.06;80.02
65291;SHT30;51893;59.754;10.110;2022-09-03T00:17:18;15.02;80.25
65291;SHT30;51893;59.754;10.110;2022-09-03T00:22:39;15.07;79.97
65291;SHT30;51893;59.754;10.110;2022-09-03T00:25:18;15.10;79.92
65291;SHT30;51893;59.754;10.110;2022-09-03T00:27:55;15.11;80.08
65291;SHT30;51893;59.754;10.110;2022-09-03T00:30:28;15.11;80.10
65291;SHT30;51893;59.754;10.110;2022-09-03T00:35:48;14.98;80.33
65291;SHT30;51893;59.754;10.110;2022-09-03T00:38:30;14.89;80.48
65291;SHT30;51893;59.754;10.110;2022-09-03T00:41:16;14.86;80.71
65291;SHT30;51893;59.754;10.110;2022-09-03T00:44:10;14.82;80.71
65291;SHT30;51893;59.754;10.110;2022-09-03T00:47:01;14.76;80.61
65291;SHT30;51893;59.754;10.110;2022-09-03T00:52:47;14.72;81.36
65291;SHT30;51893;59.754;10.110;2022-09-03T00:55:32;14.69;81.68
65291;SHT30;51893;59.754;10.110;2022-09-03T00:58:33;14.69;81.78
65291;SHT30;51893;59.754;10.110;2022-09-03T01:01:09;14.72;81.87
65291;SHT30;51893;59.754;10.110;2022-09-03T01:07:04;14.82;81.39
65291;SHT30;51893;59.754;10.110;2022-09-03T01:09:42;14.85;81.43
65291;SHT30;51893;59.754;10.110;2022-09-03T01:15:29;14.88;81.11
65291;SHT30;51893;59.754;10.110;2022-09-03T01:21:22;14.81;81.28
65291;SHT30;51893;59.754;10.110;2022-09-03T01:26:42;14.81;81.40
65291;SHT30;51893;59.754;10.110;2022-09-03T01:29:33;14.82;81.42
65291;SHT30;51893;59.754;10.110;2022-09-03T01:32:24;14.85;81.52
65291;SHT30;51893;59.754;10.110;2022-09-03T01:37:41;14.82;81.44
65291;SHT30;51893;59.754;10.110;2022-09-03T01:43:28;14.80;81.31
65291;SHT30;51893;59.754;10.110;2022-09-03T01:49:18;14.81;81.29
65291;SHT30;51893;59.754;10.110;2022-09-03T01:52:06;14.83;81.12
65291;SHT30;51893;59.754;10.110;2022-09-03T01:54:49;14.84;81.06
65291;SHT30;51893;59.754;10.110;2022-09-03T01:57:52;14.81;81.08
65291;SHT30;51893;59.754;10.110;2022-09-03T02:00:27;14.77;81.10
65291;SHT30;51893;59.754;10.110;2022-09-03T02:03:02;14.74;81.20
65291;SHT30;51893;59.754;10.110;2022-09-03T02:05:34;14.73;81.39
65291;SHT30;51893;59.754;10.110;2022-09-03T02:08:05;14.73;81.37
65291;SHT30;51893;59.754;10.110;2022-09-03T02:10:51;14.73;81.33
65291;SHT30;51893;59.754;10.110;2022-09-03T02:13:42;14.72;81.29
65291;SHT30;51893;59.754;10.110;2022-09-03T02:16:17;14.73;81.14
65291;SHT30;51893;59.754;10.110;2022-09-03T02:18:51;14.74;81.10
65291;SHT30;51893;59.754;10.110;2022-09-03T02:21:30;14.73;81.12
65291;SHT30;51893;59.754;10.110;2022-09-03T02:24:04;14.70;81.11
65291;SHT30;51893;59.754;10.110;2022-09-03T02:26:35;14.67;81.36
65291;SHT30;51893;59.754;10.110;2022-09-03T02:29:03;14.65;81.68
65291;SHT30;51893;59.754;10.110;2022-09-03T02:31:31;14.66;81.90
65291;SHT30;51893;59.754;10.110;2022-09-03T02:33:59;14.66;81.80
65291;SHT30;51893;59.754;10.110;2022-09-03T02:36:28;14.65;81.87
65291;SHT30;51893;59.754;10.110;2022-09-03T02:39:01;14.67;81.80
65291;SHT30;51893;59.754;10.110;2022-09-03T02:41:31;14.66;81.80
65291;SHT30;51893;59.754;10.110;2022-09-03T02:44:06;14.67;81.86
65291;SHT30;51893;59.754;10.110;2022-09-03T02:46:47;14.67;81.92
65291;SHT30;51893;59.754;10.110;2022-09-03T02:49:21;14.68;81.87
65291;SHT30;51893;59.754;10.110;2022-09-03T02:51:50;14.68;81.85
65291;SHT30;51893;59.754;10.110;2022-09-03T02:54:18;14.66;81.90
65291;SHT30;51893;59.754;10.110;2022-09-03T02:56:47;14.65;81.90
65291;SHT30;51893;59.754;10.110;2022-09-03T02:59:16;14.62;81.96
65291;SHT30;51893;59.754;10.110;2022-09-03T03:01:44;14.60;81.95
65291;SHT30;51893;59.754;10.110;2022-09-03T03:04:13;14.60;82.01
65291;SHT30;51893;59.754;10.110;2022-09-03T03:06:41;14.61;82.02
65291;SHT30;51893;59.754;10.110;2022-09-03T03:09:14;14.61;82.03
65291;SHT30;51893;59.754;10.110;2022-09-03T03:11:41;14.62;81.95
65291;SHT30;51893;59.754;10.110;2022-09-03T03:14:09;14.58;81.93
65291;SHT30;51893;59.754;10.110;2022-09-03T03:16:37;14.55;82.00
65291;SHT30;51893;59.754;10.110;2022-09-03T03:19:05;14.52;82.07
65291;SHT30;51893;59.754;10.110;2022-09-03T03:21:33;14.50;81.94
65291;SHT30;51893;59.754;10.110;2022-09-03T03:24:01;14.50;82.01
65291;SHT30;51893;59.754;10.110;2022-09-03T03:26:31;14.47;82.07
65291;SHT30;51893;59.754;10.110;2022-09-03T03:28:59;14.45;82.06
65291;SHT30;51893;59.754;10.110;2022-09-03T03:31:32;14.44;82.07
65291;SHT30;51893;59.754;10.110;2022-09-03T03:34:01;14.42;82.13
65291;SHT30;51893;59.754;10.110;2022-09-03T03:36:31;14.38;82.17
65291;SHT30;51893;59.754;10.110;2022-09-03T03:39:00;14.37;82.11
65291;SHT30;51893;59.754;10.110;2022-09-03T03:41:30;14.36;82.11
65291;SHT30;51893;59.754;10.110;2022-09-03T03:44:04;14.35;82.31
65291;SHT30;51893;59.754;10.110;2022-09-03T03:46:35;14.38;82.39
65291;SHT30;51893;59.754;10.110;2022-09-03T03:49:06;14.39;82.30
65291;SHT30;51893;59.754;10.110;2022-09-03T03:51:35;14.37;82.30
65291;SHT30;51893;59.754;10.110;2022-09-03T03:54:04;14.35;82.28
65291;SHT30;51893;59.754;10.110;2022-09-03T03:56:33;14.35;82.30
65291;SHT30;51893;59.754;10.110;2022-09-03T03:59:01;14.36;82.34
65291;SHT30;51893;59.754;10.110;2022-09-03T04:01:31;14.34;82.29
65291;SHT30;51893;59.754;10.110;2022-09-03T04:03:59;14.35;82.28
65291;SHT30;51893;59.754;10.110;2022-09-03T04:06:27;14.36;82.16
65291;SHT30;51893;59.754;10.110;2022-09-03T04:08:55;14.38;82.01
65291;SHT30;51893;59.754;10.110;2022-09-03T04:11:24;14.38;82.03
65291;SHT30;51893;59.754;10.110;2022-09-03T04:13:53;14.35;82.11
65291;SHT30;51893;59.754;10.110;2022-09-03T04:16:22;14.35;82.28
65291;SHT30;51893;59.754;10.110;2022-09-03T04:18:54;14.32;82.19
65291;SHT30;51893;59.754;10.110;2022-09-03T04:21:27;14.34;82.08
65291;SHT30;51893;59.754;10.110;2022-09-03T04:23:57;14.35;81.97
65291;SHT30;51893;59.754;10.110;2022-09-03T04:26:26;14.34;81.85
65291;SHT30;51893;59.754;10.110;2022-09-03T04:29:07;14.33;81.87
65291;SHT30;51893;59.754;10.110;2022-09-03T04:31:37;14.31;81.89
65291;SHT30;51893;59.754;10.110;2022-09-03T04:34:06;14.27;81.76
65291;SHT30;51893;59.754;10.110;2022-09-03T04:36:34;14.22;81.85
65291;SHT30;51893;59.754;10.110;2022-09-03T04:39:03;14.20;82.05
65291;SHT30;51893;59.754;10.110;2022-09-03T04:41:31;14.22;82.28
65291;SHT30;51893;59.754;10.110;2022-09-03T04:43:59;14.24;82.25
65291;SHT30;51893;59.754;10.110;2022-09-03T04:46:27;14.27;82.15
65291;SHT30;51893;59.754;10.110;2022-09-03T04:49:00;14.24;82.06
65291;SHT30;51893;59.754;10.110;2022-09-03T04:51:29;14.18;81.87
65291;SHT30;51893;59.754;10.110;2022-09-03T04:53:58;14.12;81.85
65291;SHT30;51893;59.754;10.110;2022-09-03T04:56:32;14.09;81.89
65291;SHT30;51893;59.754;10.110;2022-09-03T04:59:05;14.06;81.95
65291;SHT30;51893;59.754;10.110;2022-09-03T05:01:36;14.06;82.05
65291;SHT30;51893;59.754;10.110;2022-09-03T05:04:06;14.05;82.04
65291;SHT30;51893;59.754;10.110;2022-09-03T05:06:35;14.06;81.93
65291;SHT30;51893;59.754;10.110;2022-09-03T05:09:04;14.06;81.84
65291;SHT30;51893;59.754;10.110;2022-09-03T05:11:32;14.07;81.78
65291;SHT30;51893;59.754;10.110;2022-09-03T05:14:00;14.10;81.55
65291;SHT30;51893;59.754;10.110;2022-09-03T05:16:29;14.10;81.46
65291;SHT30;51893;59.754;10.110;2022-09-03T05:18:58;14.10;81.77
65291;SHT30;51893;59.754;10.110;2022-09-03T05:21:27;14.14;81.60
65291;SHT30;51893;59.754;10.110;2022-09-03T05:23:58;14.15;81.39
65291;SHT30;51893;59.754;10.110;2022-09-03T05:26:28;14.17;81.45
65291;SHT30;51893;59.754;10.110;2022-09-03T05:29:01;14.18;81.38
65291;SHT30;51893;59.754;10.110;2022-09-03T05:31:35;14.20;81.39
65291;SHT30;51893;59.754;10.110;2022-09-03T05:34:06;14.18;81.54
65291;SHT30;51893;59.754;10.110;2022-09-03T05:36:40;14.21;81.68
65291;SHT30;51893;59.754;10.110;2022-09-03T05:39:08;14.25;81.62
65291;SHT30;51893;59.754;10.110;2022-09-03T05:41:35;14.26;81.47
65291;SHT30;51893;59.754;10.110;2022-09-03T05:44:03;14.30;81.55
65291;SHT30;51893;59.754;10.110;2022-09-03T05:46:32;14.34;81.34
65291;SHT30;51893;59.754;10.110;2022-09-03T05:49:04;14.31;81.17
65291;SHT30;51893;59.754;10.110;2022-09-03T05:51:34;14.34;81.19
65291;SHT30;51893;59.754;10.110;2022-09-03T05:54:05;14.37;81.12
65291;SHT30;51893;59.754;10.110;2022-09-03T05:56:36;14.40;81.16
65291;SHT30;51893;59.754;10.110;2022-09-03T05:59:07;14.42;81.03
65291;SHT30;51893;59.754;10.110;2022-09-03T06:01:37;14.40;80.86
65291;SHT30;51893;59.754;10.110;2022-09-03T06:04:18;14.46;81.01
65291;SHT30;51893;59.754;10.110;2022-09-03T06:06:47;14.49;80.85
65291;SHT30;51893;59.754;10.110;2022-09-03T06:09:17;14.53;80.73
65291;SHT30;51893;59.754;10.110;2022-09-03T06:11:49;14.57;80.47
65291;SHT30;51893;59.754;10.110;2022-09-03T06:14:19;14.57;80.40
65291;SHT30;51893;59.754;10.110;2022-09-03T06:16:48;14.56;80.26
65291;SHT30;51893;59.754;10.110;2022-09-03T06:19:16;14.54;80.30
65291;SHT30;51893;59.754;10.110;2022-09-03T06:21:44;14.57;80.42
65291;SHT30;51893;59.754;10.110;2022-09-03T06:24:15;14.61;80.34
65291;SHT30;51893;59.754;10.110;2022-09-03T06:26:47;14.64;80.28
65291;SHT30;51893;59.754;10.110;2022-09-03T06:29:15;14.70;80.31
65291;SHT30;51893;59.754;10.110;2022-09-03T06:31:45;14.77;80.43
65291;SHT30;51893;59.754;10.110;2022-09-03T06:34:17;14.74;80.13
65291;SHT30;51893;59.754;10.110;2022-09-03T06:36:45;14.72;80.22
65291;SHT30;51893;59.754;10.110;2022-09-03T06:39:13;14.71;80.14
65291;SHT30;51893;59.754;10.110;2022-09-03T06:41:41;14.66;79.98
65291;SHT30;51893;59.754;10.110;2022-09-03T06:44:12;14.65;80.03
65291;SHT30;51893;59.754;10.110;2022-09-03T06:46:41;14.66;80.13
65291;SHT30;51893;59.754;10.110;2022-09-03T06:49:09;14.70;80.20
65291;SHT30;51893;59.754;10.110;2022-09-03T06:51:38;14.75;80.16
65291;SHT30;51893;59.754;10.110;2022-09-03T06:54:07;14.75;80.00
65291;SHT30;51893;59.754;10.110;2022-09-03T06:56:39;14.77;79.89
65291;SHT30;51893;59.754;10.110;2022-09-03T06:59:12;14.82;80.01
65291;SHT30;51893;59.754;10.110;2022-09-03T07:01:42;14.83;79.79
65291;SHT30;51893;59.754;10.110;2022-09-03T07:04:13;14.84;79.84
65291;SHT30;51893;59.754;10.110;2022-09-03T07:06:46;14.84;79.69
65291;SHT30;51893;59.754;10.110;2022-09-03T07:09:14;14.83;79.78
65291;SHT30;51893;59.754;10.110;2022-09-03T07:11:44;14.87;79.95
65291;SHT30;51893;59.754;10.110;2022-09-03T07:14:15;14.90;79.85
65291;SHT30;51893;59.754;10.110;2022-09-03T07:16:46;14.89;79.66
65291;SHT30;51893;59.754;10.110;2022-09-03T07:19:16;14.89;79.60
65291;SHT30;51893;59.754;10.110;2022-09-03T07:21:44;14.90;79.74
65291;SHT30;51893;59.754;10.110;2022-09-03T07:24:18;14.93;80.00
65291;SHT30;51893;59.754;10.110;2022-09-03T07:26:49;14.96;79.83
65291;SHT30;51893;59.754;10.110;2022-09-03T07:29:17;14.99;79.73
65291;SHT30;51893;59.754;10.110;2022-09-03T07:31:49;15.03;79.51
65291;SHT30;51893;59.754;10.110;2022-09-03T07:34:19;15.08;79.19
65291;SHT30;51893;59.754;10.110;2022-09-03T07:36:52;15.10;79.09
65291;SHT30;51893;59.754;10.110;2022-09-03T07:39:21;15.10;78.63
65291;SHT30;51893;59.754;10.110;2022-09-03T07:41:49;15.08;78.75
65291;SHT30;51893;59.754;10.110;2022-09-03T07:44:17;15.07;78.89
65291;SHT30;51893;59.754;10.110;2022-09-03T07:46:46;15.06;78.86
65291;SHT30;51893;59.754;10.110;2022-09-03T07:49:18;15.08;78.72
65291;SHT30;51893;59.754;10.110;2022-09-03T07:51:48;15.08;78.46
65291;SHT30;51893;59.754;10.110;2022-09-03T07:54:19;15.10;78.47
65291;SHT30;51893;59.754;10.110;2022-09-03T07:56:48;15.11;78.62
65291;SHT30;51893;59.754;10.110;2022-09-03T07:59:16;15.12;78.56
65291;SHT30;51893;59.754;10.110;2022-09-03T08:01:44;15.14;78.61
65291;SHT30;51893;59.754;10.110;2022-09-03T08:04:12;15.17;78.46
65291;SHT30;51893;59.754;10.110;2022-09-03T08:06:40;15.20;78.45
65291;SHT30;51893;59.754;10.110;2022-09-03T08:09:10;15.25;78.33
65291;SHT30;51893;59.754;10.110;2022-09-03T08:11:41;15.29;78.16
65291;SHT30;51893;59.754;10.110;2022-09-03T08:14:10;15.34;78.04
65291;SHT30;51893;59.754;10.110;2022-09-03T08:16:41;15.35;78.06
65291;SHT30;51893;59.754;10.110;2022-09-03T08:19:15;15.37;77.93
65291;SHT30;51893;59.754;10.110;2022-09-03T08:21:45;15.42;78.00
65291;SHT30;51893;59.754;10.110;2022-09-03T08:24:14;15.48;77.82
65291;SHT30;51893;59.754;10.110;2022-09-03T08:26:45;15.51;77.64
65291;SHT30;51893;59.754;10.110;2022-09-03T08:29:19;15.53;77.56
65291;SHT30;51893;59.754;10.110;2022-09-03T08:31:48;15.56;77.45
65291;SHT30;51893;59.754;10.110;2022-09-03T08:34:17;15.64;77.42
65291;SHT30;51893;59.754;10.110;2022-09-03T08:36:45;15.67;77.26
65291;SHT30;51893;59.754;10.110;2022-09-03T08:39:14;15.68;77.15
65291;SHT30;51893;59.754;10.110;2022-09-03T08:44:24;15.75;76.97
65291;SHT30;51893;59.754;10.110;2022-09-03T08:58:17;16.26;75.82
65291;SHT30;51893;59.754;10.110;2022-09-03T09:01:03;16.28;75.39
65291;SHT30;51893;59.754;10.110;2022-09-03T09:10:15;16.43;75.04
65291;SHT30;51893;59.754;10.110;2022-09-03T09:13:29;16.38;74.74
65291;SHT30;51893;59.754;10.110;2022-09-03T09:16:18;16.38;74.48
65291;SHT30;51893;59.754;10.110;2022-09-03T09:19:05;16.39;74.65
65291;SHT30;51893;59.754;10.110;2022-09-03T09:22:10;16.54;74.70
65291;SHT30;51893;59.754;10.110;2022-09-03T09:24:53;16.74;74.48
65291;SHT30;51893;59.754;10.110;2022-09-03T09:27:27;16.82;73.89
65291;SHT30;51893;59.754;10.110;2022-09-03T09:29:56;16.92;73.97
65291;SHT30;51893;59.754;10.110;2022-09-03T09:32:28;17.03;73.69
65291;SHT30;51893;59.754;10.110;2022-09-03T09:34:57;17.28;73.46
65291;SHT30;51893;59.754;10.110;2022-09-03T09:37:25;17.48;72.72
65291;SHT30;51893;59.754;10.110;2022-09-03T09:39:58;17.56;71.79
65291;SHT30;51893;59.754;10.110;2022-09-03T09:42:28;17.58;71.50
65291;SHT30;51893;59.754;10.110;2022-09-03T09:45:07;17.53;71.41
65291;SHT30;51893;59.754;10.110;2022-09-03T09:47:37;17.49;71.58
65291;SHT30;51893;59.754;10.110;2022-09-03T09:50:17;17.46;71.48
65291;SHT30;51893;59.754;10.110;2022-09-03T09:53:03;17.46;71.15
65291;SHT30;51893;59.754;10.110;2022-09-03T09:55:51;17.50;71.38
65291;SHT30;51893;59.754;10.110;2022-09-03T09:58:26;17.71;71.00
65291;SHT30;51893;59.754;10.110;2022-09-03T10:00:58;17.93;70.41
65291;SHT30;51893;59.754;10.110;2022-09-03T10:03:53;18.17;70.16
65291;SHT30;51893;59.754;10.110;2022-09-03T10:06:25;18.39;69.17
65291;SHT30;51893;59.754;10.110;2022-09-03T10:09:16;18.66;69.01
65291;SHT30;51893;59.754;10.110;2022-09-03T10:20:44;18.76;66.59
65291;SHT30;51893;59.754;10.110;2022-09-03T10:23:25;18.59;66.80
65291;SHT30;51893;59.754;10.110;2022-09-03T10:26:09;18.46;66.99
65291;SHT30;51893;59.754;10.110;2022-09-03T10:28:48;18.48;67.49
65291;SHT30;51893;59.754;10.110;2022-09-03T10:34:21;18.51;67.07
65291;SHT30;51893;59.754;10.110;2022-09-03T10:40:00;18.45;67.16
65291;SHT30;51893;59.754;10.110;2022-09-03T10:46:01;18.53;66.88
65291;SHT30;51893;59.754;10.110;2022-09-03T10:48:44;18.60;66.45
65291;SHT30;51893;59.754;10.110;2022-09-03T10:52:26;18.61;66.44
65291;SHT30;51893;59.754;10.110;2022-09-03T10:54:58;18.55;66.62
65291;SHT30;51893;59.754;10.110;2022-09-03T10:57:44;18.70;66.83
65291;SHT30;51893;59.754;10.110;2022-09-03T11:00:16;18.88;66.54
65291;SHT30;51893;59.754;10.110;2022-09-03T11:02:57;19.01;66.18
65291;SHT30;51893;59.754;10.110;2022-09-03T11:05:57;18.88;65.72
65291;SHT30;51893;59.754;10.110;2022-09-03T11:08:57;19.06;65.72
65291;SHT30;51893;59.754;10.110;2022-09-03T11:11:41;19.32;64.79
65291;SHT30;51893;59.754;10.110;2022-09-03T11:14:33;19.49;64.15
65291;SHT30;51893;59.754;10.110;2022-09-03T11:17:11;19.67;64.24
65291;SHT30;51893;59.754;10.110;2022-09-03T11:22:46;19.93;62.50
65291;SHT30;51893;59.754;10.110;2022-09-03T11:25:20;19.97;62.58
65291;SHT30;51893;59.754;10.110;2022-09-03T11:31:12;20.13;61.30
65291;SHT30;51893;59.754;10.110;2022-09-03T11:33:59;20.24;61.87
65291;SHT30;51893;59.754;10.110;2022-09-03T11:36:50;20.52;61.79
65291;SHT30;51893;59.754;10.110;2022-09-03T11:39:32;20.76;60.97
65291;SHT30;51893;59.754;10.110;2022-09-03T11:42:07;20.91;60.37
65291;SHT30;51893;59.754;10.110;2022-09-03T11:48:40;20.97;59.03
65291;SHT30;51893;59.754;10.110;2022-09-03T11:51:15;21.06;58.46
65291;SHT30;51893;59.754;10.110;2022-09-03T11:54:00;21.04;58.28
65291;SHT30;51893;59.754;10.110;2022-09-03T11:59:49;21.33;58.62
65291;SHT30;51893;59.754;10.110;2022-09-03T12:05:06;21.43;57.13
65291;SHT30;51893;59.754;10.110;2022-09-03T12:13:58;20.91;58.23
65291;SHT30;51893;59.754;10.110;2022-09-03T12:20:37;20.55;58.30
65291;SHT30;51893;59.754;10.110;2022-09-03T12:23:09;20.35;58.84
65291;SHT30;51893;59.754;10.110;2022-09-03T12:25:42;20.21;59.48
65291;SHT30;51893;59.754;10.110;2022-09-03T12:28:19;20.09;59.78
65291;SHT30;51893;59.754;10.110;2022-09-03T12:30:52;20.13;59.76
65291;SHT30;51893;59.754;10.110;2022-09-03T12:33:21;20.35;59.78
65291;SHT30;51893;59.754;10.110;2022-09-03T12:35:56;20.57;59.14
65291;SHT30;51893;59.754;10.110;2022-09-03T12:38:27;20.76;58.79
65291;SHT30;51893;59.754;10.110;2022-09-03T12:41:22;21.09;58.04
65291;SHT30;51893;59.754;10.110;2022-09-03T12:43:58;21.32;57.47
65291;SHT30;51893;59.754;10.110;2022-09-03T12:46:30;21.48;57.25
65291;SHT30;51893;59.754;10.110;2022-09-03T12:49:02;21.60;56.09
65291;SHT30;51893;59.754;10.110;2022-09-03T12:51:57;21.60;56.21
65291;SHT30;51893;59.754;10.110;2022-09-03T12:54:39;21.69;55.66
65291;SHT30;51893;59.754;10.110;2022-09-03T12:57:21;21.58;55.63
65291;SHT30;51893;59.754;10.110;2022-09-03T12:59:55;21.58;55.73
65291;SHT30;51893;59.754;10.110;2022-09-03T13:02:34;21.70;55.03
65291;SHT30;51893;59.754;10.110;2022-09-03T13:05:44;21.73;55.06
65291;SHT30;51893;59.754;10.110;2022-09-03T13:08:21;21.85;55.57
65291;SHT30;51893;59.754;10.110;2022-09-03T13:10:56;21.82;54.75
65291;SHT30;51893;59.754;10.110;2022-09-03T13:13:32;21.62;55.16
65291;SHT30;51893;59.754;10.110;2022-09-03T13:16:28;21.53;55.27
65291;SHT30;51893;59.754;10.110;2022-09-03T13:19:25;21.62;55.58
65291;SHT30;51893;59.754;10.110;2022-09-03T13:28:10;22.36;54.58
65291;SHT30;51893;59.754;10.110;2022-09-03T13:34:07;21.92;54.26
65291;SHT30;51893;59.754;10.110;2022-09-03T13:36:44;21.74;54.54
65291;SHT30;51893;59.754;10.110;2022-09-03T13:47:47;21.44;55.39
65291;SHT30;51893;59.754;10.110;2022-09-03T13:50:57;21.66;55.08
65291;SHT30;51893;59.754;10.110;2022-09-03T13:56:33;21.84;54.28
65291;SHT30;51893;59.754;10.110;2022-09-03T13:59:26;21.80;53.64
65291;SHT30;51893;59.754;10.110;2022-09-03T14:05:22;21.67;53.46
65291;SHT30;51893;59.754;10.110;2022-09-03T14:10:57;21.74;53.81
65291;SHT30;51893;59.754;10.110;2022-09-03T14:22:00;21.16;54.65
65291;SHT30;51893;59.754;10.110;2022-09-03T14:24:45;20.99;54.99
65291;SHT30;51893;59.754;10.110;2022-09-03T14:27:23;20.71;56.02
65291;SHT30;51893;59.754;10.110;2022-09-03T14:30:05;20.60;56.22
65291;SHT30;51893;59.754;10.110;2022-09-03T14:39:29;20.12;56.92
65291;SHT30;51893;59.754;10.110;2022-09-03T14:44:35;20.03;57.05
65291;SHT30;51893;59.754;10.110;2022-09-03T14:47:55;20.01;57.27
65291;SHT30;51893;59.754;10.110;2022-09-03T14:50:39;19.89;57.69
65291;SHT30;51893;59.754;10.110;2022-09-03T14:59:25;19.56;58.77
65291;SHT30;51893;59.754;10.110;2022-09-03T15:11:18;19.18;59.27
65291;SHT30;51893;59.754;10.110;2022-09-03T15:13:53;19.13;59.79
65291;SHT30;51893;59.754;10.110;2022-09-03T15:25:22;19.08;60.66
65291;SHT30;51893;59.754;10.110;2022-09-03T15:31:09;18.99;60.94
65291;SHT30;51893;59.754;10.110;2022-09-03T15:33:58;18.93;60.87
65291;SHT30;51893;59.754;10.110;2022-09-03T15:36:44;18.91;60.99
65291;SHT30;51893;59.754;10.110;2022-09-03T15:39:22;18.85;61.08
65291;SHT30;51893;59.754;10.110;2022-09-03T15:42:20;18.83;61.29
65291;SHT30;51893;59.754;10.110;2022-09-03T15:44:55;18.80;61.20
65291;SHT30;51893;59.754;10.110;2022-09-03T15:47:35;18.76;61.23
65291;SHT30;51893;59.754;10.110;2022-09-03T15:50:28;18.73;61.43
65291;SHT30;51893;59.754;10.110;2022-09-03T16:02:32;18.39;61.94
65291;SHT30;51893;59.754;10.110;2022-09-03T16:05:12;18.33;62.02
65291;SHT30;51893;59.754;10.110;2022-09-03T16:16:18;18.15;62.40
65291;SHT30;51893;59.754;10.110;2022-09-03T16:19:00;18.11;62.51
65291;SHT30;51893;59.754;10.110;2022-09-03T16:27:22;18.01;62.80
65291;SHT30;51893;59.754;10.110;2022-09-03T16:39:07;17.90;63.22
65291;SHT30;51893;59.754;10.110;2022-09-03T16:51:12;17.72;63.91
65291;SHT30;51893;59.754;10.110;2022-09-03T16:54:05;17.68;64.06
65291;SHT30;51893;59.754;10.110;2022-09-03T17:05:58;17.71;64.33
65291;SHT30;51893;59.754;10.110;2022-09-03T17:11:31;17.67;64.51
65291;SHT30;51893;59.754;10.110;2022-09-03T17:20:22;17.64;64.94
65291;SHT30;51893;59.754;10.110;2022-09-03T17:25:37;17.65;65.19
65291;SHT30;51893;59.754;10.110;2022-09-03T17:31:49;17.62;65.27
65291;SHT30;51893;59.754;10.110;2022-09-03T17:37:07;17.53;65.36
65291;SHT30;51893;59.754;10.110;2022-09-03T17:46:27;17.32;65.86
65291;SHT30;51893;59.754;10.110;2022-09-03T17:49:25;17.27;66.08
65291;SHT30;51893;59.754;10.110;2022-09-03T17:52:06;17.23;66.23
65291;SHT30;51893;59.754;10.110;2022-09-03T17:54:59;17.21;66.43
65291;SHT30;51893;59.754;10.110;2022-09-03T17:57:44;17.18;66.61
65291;SHT30;51893;59.754;10.110;2022-09-03T18:00:29;17.17;66.76
65291;SHT30;51893;59.754;10.110;2022-09-03T18:03:21;17.11;66.96
65291;SHT30;51893;59.754;10.110;2022-09-03T18:06:00;17.07;67.08
65291;SHT30;51893;59.754;10.110;2022-09-03T18:08:50;17.05;67.14
65291;SHT30;51893;59.754;10.110;2022-09-03T18:14:34;17.02;67.22
65291;SHT30;51893;59.754;10.110;2022-09-03T18:17:26;16.96;67.37
65291;SHT30;51893;59.754;10.110;2022-09-03T18:19:58;16.91;67.51
65291;SHT30;51893;59.754;10.110;2022-09-03T18:23:02;16.87;67.59
65291;SHT30;51893;59.754;10.110;2022-09-03T18:25:58;16.77;67.84
65291;SHT30;51893;59.754;10.110;2022-09-03T18:28:58;16.71;67.95
65291;SHT30;51893;59.754;10.110;2022-09-03T18:31:56;16.67;68.10
65291;SHT30;51893;59.754;10.110;2022-09-03T18:34:43;16.69;68.12
65291;SHT30;51893;59.754;10.110;2022-09-03T18:37:32;16.67;68.22
65291;SHT30;51893;59.754;10.110;2022-09-03T18:40:24;16.62;68.32
65291;SHT30;51893;59.754;10.110;2022-09-03T18:43:41;16.55;68.63
65291;SHT30;51893;59.754;10.110;2022-09-03T18:57:28;16.14;70.86
65291;SHT30;51893;59.754;10.110;2022-09-03T19:00:50;16.20;70.90
65291;SHT30;51893;59.754;10.110;2022-09-03T19:10:42;16.25;70.89
65291;SHT30;51893;59.754;10.110;2022-09-03T19:13:55;16.19;70.92
65291;SHT30;51893;59.754;10.110;2022-09-03T19:17:03;16.13;71.73
65291;SHT30;51893;59.754;10.110;2022-09-03T19:20:31;16.08;72.39
65291;SHT30;51893;59.754;10.110;2022-09-03T19:23:36;16.07;72.57
65291;SHT30;51893;59.754;10.110;2022-09-03T19:26:34;16.02;72.74
65291;SHT30;51893;59.754;10.110;2022-09-03T19:36:07;15.87;72.79
65291;SHT30;51893;59.754;10.110;2022-09-03T19:39:13;15.84;72.94
65291;SHT30;51893;59.754;10.110;2022-09-03T19:45:53;15.72;73.32
65291;SHT30;51893;59.754;10.110;2022-09-03T19:52:12;15.77;72.96
65291;SHT30;51893;59.754;10.110;2022-09-03T19:55:11;15.75;72.84
65291;SHT30;51893;59.754;10.110;2022-09-03T19:58:09;15.74;72.66
65291;SHT30;51893;59.754;10.110;2022-09-03T20:01:10;15.70;72.70
65291;SHT30;51893;59.754;10.110;2022-09-03T20:04:13;15.66;73.02
65291;SHT30;51893;59.754;10.110;2022-09-03T20:07:02;15.59;72.90
65291;SHT30;51893;59.754;10.110;2022-09-03T20:09:55;15.54;72.87
65291;SHT30;51893;59.754;10.110;2022-09-03T20:12:49;15.51;73.14
65291;SHT30;51893;59.754;10.110;2022-09-03T20:18:41;15.41;73.45
65291;SHT30;51893;59.754;10.110;2022-09-03T20:21:50;15.41;73.57
65291;SHT30;51893;59.754;10.110;2022-09-03T20:27:25;15.39;73.48
65291;SHT30;51893;59.754;10.110;2022-09-03T20:30:17;15.43;73.35
65291;SHT30;51893;59.754;10.110;2022-09-03T20:32:57;15.42;73.42
65291;SHT30;51893;59.754;10.110;2022-09-03T20:36:07;15.41;73.57
65291;SHT30;51893;59.754;10.110;2022-09-03T20:45:24;15.49;73.91
65291;SHT30;51893;59.754;10.110;2022-09-03T20:50:50;15.56;73.82
65291;SHT30;51893;59.754;10.110;2022-09-03T20:53:34;15.57;73.71
65291;SHT30;51893;59.754;10.110;2022-09-03T21:00:02;15.54;74.07
65291;SHT30;51893;59.754;10.110;2022-09-03T21:11:32;15.50;74.94
65291;SHT30;51893;59.754;10.110;2022-09-03T21:22:51;15.53;74.47
65291;SHT30;51893;59.754;10.110;2022-09-03T21:25:41;15.52;74.47
65291;SHT30;51893;59.754;10.110;2022-09-03T21:28:44;15.54;74.51
65291;SHT30;51893;59.754;10.110;2022-09-03T21:31:32;15.55;74.58
65291;SHT30;51893;59.754;10.110;2022-09-03T21:34:24;15.57;74.69
65291;SHT30;51893;59.754;10.110;2022-09-03T21:36:58;15.51;74.80
65291;SHT30;51893;59.754;10.110;2022-09-03T21:39:31;15.45;74.89
65291;SHT30;51893;59.754;10.110;2022-09-03T21:42:14;15.41;75.14
65291;SHT30;51893;59.754;10.110;2022-09-03T21:45:09;15.41;75.33
65291;SHT30;51893;59.754;10.110;2022-09-03T21:48:05;15.41;75.39